createdAt,value
2022-08-09T00:05:03.208Z,71.03
2022-08-09T00:10:21.499Z,71.79
2022-08-09T00:15:26.343Z,72.58
2022-08-09T00:20:49.981Z,73.14
2022-08-09T00:25:52.061Z,73.27
2022-08-09T00:30:53.632Z,73.71
2022-08-09T00:35:55.948Z,74.41
2022-08-09T00:40:58.145Z,74.58
2022-08-09T00:45:59.680Z,74.91
2022-08-09T00:51:10.255Z,75.23
2022-08-09T00:56:14.504Z,75.76
2022-08-09T01:01:20.100Z,76.28
2022-08-09T01:06:54.629Z,76.57
2022-08-09T01:12:15.673Z,76.90
2022-08-09T01:17:19.789Z,77.20
2022-08-09T01:22:41.069Z,77.82
2022-08-09T01:27:43.608Z,78.34
2022-08-09T01:32:54.039Z,78.59
2022-08-09T01:38:09.405Z,79.06
2022-08-09T01:43:12.459Z,79.55
2022-08-09T01:48:15.619Z,80.09
2022-08-09T01:53:19.538Z,80.55
2022-08-09T01:58:24.129Z,80.90
2022-08-09T02:03:29.273Z,81.42
2022-08-09T02:08:35.478Z,81.57
2022-08-09T02:13:42.504Z,81.84
2022-08-09T02:18:57.033Z,82.40
2022-08-09T02:24:00.041Z,82.47
2022-08-09T02:29:06.730Z,82.98
2022-08-09T02:34:25.950Z,83.20
2022-08-09T02:39:45.420Z,83.42
2022-08-09T02:45:03.308Z,83.81
2022-08-09T02:50:07.565Z,84.11
2022-08-09T02:55:20.795Z,84.40
2022-08-09T03:00:25.585Z,84.70
2022-08-09T03:05:28.786Z,84.76
2022-08-09T03:10:31.361Z,85.14
2022-08-09T03:15:40.549Z,85.30
2022-08-09T03:20:55.400Z,85.99
2022-08-09T03:26:03.531Z,86.11
2022-08-09T03:31:10.407Z,86.74
2022-08-09T03:36:27.816Z,87.35
2022-08-09T03:41:30.143Z,87.70
2022-08-09T03:46:46.518Z,88.01
2022-08-09T03:51:58.128Z,88.51
2022-08-09T03:57:02.285Z,89.68
2022-08-09T04:02:06.008Z,89.84
2022-08-09T04:07:09.215Z,88.79
2022-08-09T04:12:30.467Z,88.71
2022-08-09T04:17:32.864Z,88.55
2022-08-09T04:22:34.919Z,88.56
2022-08-09T04:27:42.582Z,88.72
2022-08-09T04:32:50.884Z,89.20
2022-08-09T04:37:52.793Z,88.94
2022-08-09T04:42:54.892Z,88.53
2022-08-09T04:48:04.151Z,88.54
2022-08-09T04:53:13.222Z,88.96
2022-08-09T04:58:15.105Z,89.29
2022-08-09T05:03:41.176Z,87.91
2022-08-09T05:08:43.937Z,87.32
2022-08-09T05:13:49.309Z,86.65
2022-08-09T05:18:57.273Z,85.70
2022-08-09T05:24:02.512Z,86.82
2022-08-09T05:29:05.493Z,86.20
2022-08-09T05:34:06.819Z,86.14
2022-08-09T05:39:28.152Z,85.17
2022-08-09T05:44:32.889Z,82.67
2022-08-09T05:50:14.842Z,70.80
2022-08-09T05:54:57.272Z,59.66
2022-08-09T06:00:06.134Z,55.45
2022-08-09T06:05:09.489Z,51.54
2022-08-09T06:10:15.678Z,49.03
2022-08-09T06:15:19.400Z,46.03
2022-08-09T06:20:21.334Z,45.45
2022-08-09T06:25:23.429Z,42.34
2022-08-09T06:30:25.174Z,40.92
2022-08-09T06:35:55.679Z,40.56
2022-08-09T06:40:49.387Z,41.79
2022-08-09T06:46:06.207Z,40.60
2022-08-09T06:51:11.793Z,40.99
2022-08-09T06:56:13.170Z,38.41
2022-08-09T07:01:16.265Z,37.54
2022-08-09T07:06:18.368Z,37.39
2022-08-09T07:11:23.390Z,38.00
2022-08-09T07:16:42.610Z,36.92
2022-08-09T07:21:55.844Z,39.35
2022-08-09T07:27:01.257Z,36.79
2022-08-09T07:32:03.562Z,33.67
2022-08-09T07:37:04.963Z,38.76
2022-08-09T07:42:12.341Z,37.43
2022-08-09T07:47:16.268Z,34.71
2022-08-09T07:52:18.212Z,33.32
2022-08-09T07:57:21.014Z,33.13
2022-08-09T08:02:23.649Z,35.06
2022-08-09T08:08:43.002Z,31.01
2022-08-09T08:12:46.866Z,32.08
2022-08-09T08:17:53.790Z,31.51
2022-08-09T08:22:58.766Z,29.05
2022-08-09T08:28:03.289Z,29.82
2022-08-09T08:33:04.641Z,32.83
2022-08-09T08:38:11.507Z,34.82
2022-08-09T08:43:14.220Z,30.76
2022-08-09T08:48:16.847Z,31.69
2022-08-09T08:53:22.342Z,28.29
2022-08-09T08:58:27.367Z,27.29
2022-08-09T09:03:37.089Z,26.17
2022-08-09T09:08:42.464Z,26.86
2022-08-09T09:13:57.120Z,26.23
2022-08-09T09:24:26.485Z,23.70
2022-08-09T09:29:46.076Z,23.10
2022-08-09T09:35:10.187Z,26.99
2022-08-09T09:40:12.384Z,24.49
2022-08-09T09:45:26.841Z,25.16
2022-08-09T09:50:49.552Z,24.17
2022-08-09T09:56:04.482Z,24.58
2022-08-09T10:01:31.244Z,24.87
2022-08-09T10:06:42.965Z,23.08
2022-08-09T10:11:59.573Z,23.38
2022-08-09T10:17:40.238Z,25.91
2022-08-09T10:22:33.427Z,25.40
2022-08-09T10:27:44.910Z,25.00
2022-08-09T10:32:58.126Z,22.93
2022-08-09T10:38:01.551Z,23.18
2022-08-09T10:43:05.396Z,23.14
2022-08-09T10:48:31.576Z,27.68
2022-08-09T10:53:54.695Z,23.45
2022-08-09T10:58:57.844Z,22.32
2022-08-09T11:04:29.982Z,22.39
2022-08-09T11:09:37.253Z,21.41
2022-08-09T11:14:44.642Z,22.28
2022-08-09T11:20:11.981Z,23.28
2022-08-09T11:25:25.995Z,22.70
2022-08-09T11:30:38.520Z,21.80
2022-08-09T11:35:49.548Z,23.23
2022-08-09T11:40:52.823Z,22.45
2022-08-09T11:45:58.080Z,22.40
2022-08-09T11:52:49.559Z,24.01
2022-08-09T11:56:34.481Z,23.36
2022-08-09T12:02:18.433Z,23.94
2022-08-09T12:07:09.630Z,26.41
2022-08-09T12:12:20.282Z,25.07
2022-08-09T12:17:41.262Z,25.63
2022-08-09T12:22:46.509Z,24.70
2022-08-09T12:29:11.736Z,26.77
2022-08-09T12:33:50.946Z,26.13
2022-08-09T12:38:53.788Z,25.85
2022-08-09T12:44:04.379Z,26.42
2022-08-09T12:49:09.049Z,27.55
2022-08-09T12:54:10.410Z,26.11
2022-08-09T12:59:13.996Z,25.02
2022-08-09T13:04:37.683Z,25.79
2022-08-09T13:09:40.838Z,25.50
2022-08-09T13:14:48.811Z,26.21
2022-08-09T13:20:10.009Z,25.67
2022-08-09T13:25:15.571Z,25.67
2022-08-09T13:30:58.643Z,26.12
2022-08-09T13:36:24.549Z,25.61
2022-08-09T13:41:50.639Z,25.06
2022-08-09T13:47:13.717Z,25.59
2022-08-09T13:51:58.684Z,24.94
2022-08-09T13:57:02.982Z,25.22
2022-08-09T14:02:08.252Z,25.14
2022-08-09T14:07:11.421Z,24.92
2022-08-09T14:12:15.550Z,24.66
2022-08-09T14:17:17.364Z,24.35
2022-08-09T14:22:24.356Z,24.29
2022-08-09T14:27:26.590Z,24.71
2022-08-09T14:32:30.911Z,26.34
2022-08-09T14:37:41.311Z,25.53
2022-08-09T14:42:54.493Z,26.06
2022-08-09T14:47:58.539Z,26.88
2022-08-09T14:53:11.632Z,26.98
2022-08-09T14:58:13.672Z,25.74
2022-08-09T15:03:16.762Z,26.58
2022-08-09T15:08:24.009Z,27.06
2022-08-09T15:13:25.669Z,27.12
2022-08-09T15:18:31.364Z,27.26
2022-08-09T15:24:00.839Z,26.21
2022-08-09T15:28:54.810Z,26.88
2022-08-09T15:34:04.355Z,27.62
2022-08-09T15:39:20.480Z,28.64
2022-08-09T15:44:22.995Z,28.53
2022-08-09T15:49:24.552Z,29.59
2022-08-09T15:54:42.993Z,29.67
2022-08-09T15:59:51.626Z,30.55
2022-08-09T16:04:53.368Z,29.95
2022-08-09T16:10:04.934Z,30.45
2022-08-09T16:16:10.496Z,31.11
2022-08-09T16:20:30.502Z,31.41
2022-08-09T16:25:40.417Z,30.48
2022-08-09T16:30:44.297Z,31.51
2022-08-09T16:35:57.475Z,31.63
2022-08-09T16:41:04.021Z,31.16
2022-08-09T16:46:06.167Z,32.30
2022-08-09T16:51:14.041Z,32.41
2022-08-09T16:56:16.070Z,32.17
2022-08-09T17:01:23.660Z,32.72
2022-08-09T17:06:32.154Z,33.25
2022-08-09T17:11:41.589Z,33.76
2022-08-09T17:16:43.601Z,33.28
2022-08-09T17:21:46.719Z,34.39
2022-08-09T17:26:52.042Z,34.10
2022-08-09T17:31:55.071Z,33.98
2022-08-09T17:36:56.499Z,34.70
2022-08-09T17:42:03.783Z,35.18
2022-08-09T17:47:05.956Z,34.66
2022-08-09T17:52:22.057Z,34.77
2022-08-09T17:58:02.409Z,35.64
2022-08-09T18:02:50.450Z,35.67
2022-08-09T18:08:00.072Z,36.48
2022-08-09T18:13:38.815Z,37.02
2022-08-09T18:18:26.062Z,37.99
2022-08-09T18:24:09.945Z,36.94
2022-08-09T18:30:35.828Z,37.95
2022-08-09T18:34:16.700Z,38.13
2022-08-09T18:39:25.675Z,39.07
2022-08-09T18:44:33.756Z,39.32
2022-08-09T18:49:46.262Z,39.49
2022-08-09T18:54:52.150Z,39.96
2022-08-09T18:59:57.591Z,40.28
2022-08-09T19:05:04.403Z,40.43
2022-08-09T19:10:17.648Z,40.86
2022-08-09T19:15:19.487Z,42.75
2022-08-09T19:20:21.650Z,41.81
2022-08-09T19:25:41.812Z,41.87
2022-08-09T19:30:45.480Z,43.01
2022-08-09T19:35:57.560Z,43.61
2022-08-09T19:41:01.886Z,44.21
2022-08-09T19:46:04.116Z,44.27
2022-08-09T19:51:06.051Z,45.77
2022-08-09T19:56:07.677Z,45.93
2022-08-09T20:01:17.518Z,46.23
2022-08-09T20:06:22.287Z,44.92
2022-08-09T20:11:42.837Z,45.99
2022-08-09T20:16:54.358Z,47.57
2022-08-09T20:22:00.108Z,47.95
2022-08-09T20:27:08.676Z,50.52
2022-08-09T20:32:28.705Z,49.71
2022-08-09T20:38:08.623Z,51.61
2022-08-09T20:43:00.443Z,52.19
2022-08-09T20:48:20.913Z,53.98
2022-08-09T20:53:36.632Z,54.04
2022-08-09T20:58:43.444Z,53.41
2022-08-09T21:05:48.912Z,54.44
2022-08-09T21:09:13.647Z,54.59
2022-08-09T21:14:16.829Z,55.49
2022-08-09T21:20:18.756Z,55.17
2022-08-09T21:25:00.933Z,56.40
2022-08-09T21:30:02.366Z,56.66
2022-08-09T21:35:04.253Z,56.75
2022-08-09T21:40:08.143Z,57.68
2022-08-09T21:45:17.393Z,58.36
2022-08-09T21:50:22.973Z,58.19
2022-08-09T21:55:35.343Z,58.06
2022-08-09T22:00:37.096Z,58.92
2022-08-09T22:05:42.340Z,58.42
2022-08-09T22:11:05.041Z,58.28
2022-08-09T22:16:08.681Z,59.12
2022-08-09T22:21:22.390Z,59.79
2022-08-09T22:26:34.919Z,60.76
2022-08-09T22:31:44.100Z,60.50
2022-08-09T22:36:52.036Z,61.32
2022-08-09T22:41:54.053Z,61.76
2022-08-09T22:48:11.231Z,62.25
2022-08-09T22:52:17.872Z,62.08
2022-08-09T22:57:21.138Z,63.00
2022-08-09T23:02:23.372Z,63.55
2022-08-09T23:08:21.944Z,62.76
2022-08-09T23:13:06.397Z,62.64
2022-08-09T23:18:14.447Z,62.92
2022-08-09T23:23:15.802Z,63.34
2022-08-09T23:28:17.202Z,63.28
2022-08-09T23:33:19.271Z,63.02
2022-08-09T23:38:20.825Z,64.52
2022-08-09T23:43:22.193Z,63.88
2022-08-09T23:48:23.565Z,65.71
2022-08-09T23:53:25.630Z,65.38
2022-08-09T23:58:33.463Z,67.13
